This is the latest recevied weather packets stored in our database for station/object KU9TRY. If no packets are shown the sender has not sent any weather packets the latest 10 day(s).
| Time | Temp. | Humidity | Pressure | Rain* | Wind** | Luminosity | Snow |
|---|---|---|---|---|---|---|---|
| 1777840354 | 18.33° C | 33% | 1018.6 hPa | 0 mm | - | 41 W/m² | - |
| 1777840051 | 17.78° C | 32% | 1018.7 hPa | 0 mm | - | 41 W/m² | - |
| 1777839751 | 18.33° C | 35% | 1018.9 hPa | 0 mm | - | 41 W/m² | - |
| 1777839144 | 18.33° C | 41% | 1019.1 hPa | 0 mm | - | 43 W/m² | - |
| 1777838840 | 18.33° C | 32% | 1018.9 hPa | 0 mm | - | 44 W/m² | - |
| 1777838536 | 17.78° C | 37% | 1019.2 hPa | 0 mm | - | 44 W/m² | - |
| 1777838233 | 18.33° C | 34% | 1019.5 hPa | 0 mm | - | 44 W/m² | - |
| 1777837020 | 17.78° C | 35% | 1019.6 hPa | 0 mm | - | 46 W/m² | - |
| 1777836411 | 17.78° C | 34% | 1019.7 hPa | 0 mm | - | 48 W/m² | - |
| 1777836107 | 17.22° C | 37% | 1019.9 hPa | 0 mm | - | 48 W/m² | - |
| 1777835501 | 17.78° C | 36% | 1020 hPa | 0 mm | - | 49 W/m² | - |
| 1777835198 | 17.22° C | 33% | 1020.1 hPa | 0 mm | - | 49 W/m² | - |
| 1777833375 | 17.22° C | 34% | 1020.7 hPa | 0 mm | - | 54 W/m² | - |
| 1777832771 | 16.67° C | 37% | 1020.9 hPa | 0 mm | - | 79 W/m² | - |
| 1777832468 | 16.67° C | 36% | 1020.9 hPa | 0 mm | - | 88 W/m² | - |
| 1777831862 | 16.67° C | 38% | 1020.8 hPa | 0 mm | - | 58 W/m² | - |
| 1777830044 | 15.56° C | 44% | 1021.1 hPa | 0 mm | - | 77 W/m² | - |
| 1777829739 | 16.11° C | 41% | 1021.4 hPa | 0 mm | - | 996 W/m² | - |
| 1777822164 | 13.89° C | 64% | 1022.8 hPa | 0 mm | - | 936 W/m² | - |
| 1777818528 | 10° C | 83% | 1022.9 hPa | 0 mm | - | 240 W/m² | - |
| 1777815499 | 8.33° C | 91% | 1022.7 hPa | 0 mm | - | 184 W/m² | - |
| 1777814286 | 7.22° C | 93% | 1022.7 hPa | 0 mm | - | 116 W/m² | - |
| 1777811258 | 5.56° C | 98% | 1022.7 hPa | 0 mm | - | 86 W/m² | - |
| 1777810956 | 5° C | 98% | 1022.6 hPa | 0 mm | - | 68 W/m² | - |
| 1777810652 | 5° C | 99% | 1022.7 hPa | 0 mm | - | 67 W/m² | - |
* Rain latest hour (hover to see other rain measurements)
** Current wind speed in m/s (hover to see current wind gust speed)